Lyon Satolas, France

16:38 CEST le 20 août 2014 (GMT +0200)
Saint Exupery | Change Station
CLOSE
Current Station
Aéroport
Location: Lyon Satolas,
Altitude: 787 ft
Stations météo à proximité

Alt. 787 ft 45.73 °N, 5.08 °E | Updated 8 minutes ago

Clear
Ciel dégagé
70 ° F
Paraît 70 ° F
N
4
Vent Variable Vent de NO

Aujourd'hui
Haut(e) -- | Bas -- ° F
--% Risque de précip.
Hier
Haut(e) -- | Bas -- ° F
Precip. -- pouce
6:45 AM 8:39 PM
Lune descendante, 21% visible
Pression 30.01 pouce
Visibilité -9999.0 Miles terrestres
Nuages
Point de rosée 45 ° F
Humidité 40%
Précipitations 0.00 pouce
Profondeur de la couche neigeuse Non disponible.
UV Non disponible.
Pollen Non disponible.
Qualité de l'air Non disponible.
Flu Activity Non disponible.
METAR LFLL 201430Z 31003KT 240V360 CAVOK 21/07 Q1016 NOSIG

More Conditions Fewer Conditions

Pression 30.01 pouce
Visibilité -9999.0 Miles terrestres
Nuages
Point de rosée 45 ° F
Humidité 40%
Précipitations 0.00 pouce
Profondeur de la couche neigeuse Non disponible.
UV Non disponible.
Pollen Non disponible.
Qualité de l'air Non disponible.
Flu Activity Non disponible.
METAR LFLL 201430Z 31003KT 240V360 CAVOK 21/07 Q1016 NOSIG

More Conditions Fewer Conditions

10-Day Weather Forecast

Almanac

Astronomie

Aug. 20, 2014 Lever Coucher
Temps réel 06:45 CEST 20:39 CEST
Crépuscule civil 06:13 CEST 21:11 CEST
Crépuscule nautique 05:34 CEST 21:50 CEST
Crépuscule astronomique 04:51 CEST 22:33 CEST
Lune 02:07 CEST 17:17 CEST
Durée de lumière visible 14h 57m
Longueur du jour
13h 54m
Tomorrow will be 2m 58s shorter.
Lune descendante, 21% of the Moon is Illuminated
Aujourd'hui
Lune descendante
août 25
Nouveau
Sep 2
Premier quartier
Sep 8
Pleine lune
Sep 15
Dernier quartier

Les extrêmes de température d’hier

Country Highs Country Lows

Community

WunderPhotos

Upload Photos

1,745,654 Photos téléchargées !

Nearby

Qualité de l'air

Not available.

Épaisseur de neige

Not available.

Activité sismique

Ville Distance Mag. Time & Date
No recent earthquake activity has been reported nearby.
Minimum magnitude displayed is 2.5.

Températures des eaux côtières

Lieu Température
Aucun rapport de station

Stations météo à proximité